sensor_id;sensor_type;location;lat;lon;timestamp;temperature;humidity
82836;DHT22;72587;50.746;8.246;2023-12-28T00:01:47;3.90;99.90
82836;DHT22;72587;50.746;8.246;2023-12-28T00:04:14;4.00;99.90
82836;DHT22;72587;50.746;8.246;2023-12-28T00:06:39;4.00;99.90
82836;DHT22;72587;50.746;8.246;2023-12-28T00:09:05;4.00;99.90
82836;DHT22;72587;50.746;8.246;2023-12-28T00:11:31;4.00;99.90
82836;DHT22;72587;50.746;8.246;2023-12-28T00:13:57;4.10;99.90
82836;DHT22;72587;50.746;8.246;2023-12-28T00:16:23;4.10;99.90
82836;DHT22;72587;50.746;8.246;2023-12-28T00:18:48;4.20;99.90
82836;DHT22;72587;50.746;8.246;2023-12-28T00:21:14;4.30;99.90
82836;DHT22;72587;50.746;8.246;2023-12-28T00:23:39;4.40;99.90
82836;DHT22;72587;50.746;8.246;2023-12-28T00:26:05;4.60;99.90
82836;DHT22;72587;50.746;8.246;2023-12-28T00:28:30;4.90;99.90
82836;DHT22;72587;50.746;8.246;2023-12-28T00:30:56;5.10;99.90
82836;DHT22;72587;50.746;8.246;2023-12-28T00:33:21;5.30;99.90
82836;DHT22;72587;50.746;8.246;2023-12-28T00:35:47;5.40;99.90
82836;DHT22;72587;50.746;8.246;2023-12-28T00:38:12;5.50;99.90
82836;DHT22;72587;50.746;8.246;2023-12-28T00:40:38;5.80;99.90
82836;DHT22;72587;50.746;8.246;2023-12-28T00:43:04;6.00;99.90
82836;DHT22;72587;50.746;8.246;2023-12-28T00:45:29;6.20;99.90
82836;DHT22;72587;50.746;8.246;2023-12-28T00:47:55;6.50;99.90
82836;DHT22;72587;50.746;8.246;2023-12-28T00:50:22;6.80;99.90
82836;DHT22;72587;50.746;8.246;2023-12-28T00:52:47;6.90;99.90
82836;DHT22;72587;50.746;8.246;2023-12-28T00:55:13;7.00;99.90
82836;DHT22;72587;50.746;8.246;2023-12-28T00:57:39;7.10;99.90
82836;DHT22;72587;50.746;8.246;2023-12-28T01:00:05;7.20;99.90
82836;DHT22;72587;50.746;8.246;2023-12-28T01:02:31;7.30;99.90
82836;DHT22;72587;50.746;8.246;2023-12-28T01:04:56;7.30;99.90
82836;DHT22;72587;50.746;8.246;2023-12-28T01:07:22;7.40;99.90
82836;DHT22;72587;50.746;8.246;2023-12-28T01:09:47;7.40;99.90
82836;DHT22;72587;50.746;8.246;2023-12-28T01:12:13;7.50;99.90
82836;DHT22;72587;50.746;8.246;2023-12-28T01:14:38;7.70;99.90
82836;DHT22;72587;50.746;8.246;2023-12-28T01:17:04;7.80;99.90
82836;DHT22;72587;50.746;8.246;2023-12-28T01:19:29;7.80;99.90
82836;DHT22;72587;50.746;8.246;2023-12-28T01:21:55;7.80;99.90
82836;DHT22;72587;50.746;8.246;2023-12-28T01:24:21;7.80;99.90
82836;DHT22;72587;50.746;8.246;2023-12-28T01:26:46;7.70;99.90
82836;DHT22;72587;50.746;8.246;2023-12-28T01:29:12;7.70;99.90
82836;DHT22;72587;50.746;8.246;2023-12-28T01:31:37;7.60;99.90
82836;DHT22;72587;50.746;8.246;2023-12-28T01:34:04;7.60;99.90
82836;DHT22;72587;50.746;8.246;2023-12-28T01:36:30;7.50;99.90
82836;DHT22;72587;50.746;8.246;2023-12-28T01:38:55;7.50;99.90
82836;DHT22;72587;50.746;8.246;2023-12-28T01:41:21;7.40;99.90
82836;DHT22;72587;50.746;8.246;2023-12-28T01:43:47;7.30;99.90
82836;DHT22;72587;50.746;8.246;2023-12-28T01:46:17;7.20;99.90
82836;DHT22;72587;50.746;8.246;2023-12-28T01:48:45;7.20;99.90
82836;DHT22;72587;50.746;8.246;2023-12-28T01:51:12;7.20;99.90
82836;DHT22;72587;50.746;8.246;2023-12-28T01:53:39;7.10;99.90
82836;DHT22;72587;50.746;8.246;2023-12-28T01:56:05;7.10;99.90
82836;DHT22;72587;50.746;8.246;2023-12-28T01:58:33;7.10;99.90
82836;DHT22;72587;50.746;8.246;2023-12-28T02:01:00;7.10;99.90
82836;DHT22;72587;50.746;8.246;2023-12-28T02:03:27;7.00;99.90
82836;DHT22;72587;50.746;8.246;2023-12-28T02:05:52;7.00;99.90
82836;DHT22;72587;50.746;8.246;2023-12-28T02:08:19;7.00;99.90
82836;DHT22;72587;50.746;8.246;2023-12-28T02:10:44;7.00;99.90
82836;DHT22;72587;50.746;8.246;2023-12-28T02:13:10;7.00;99.90
82836;DHT22;72587;50.746;8.246;2023-12-28T02:15:35;7.00;99.90
82836;DHT22;72587;50.746;8.246;2023-12-28T02:18:08;7.00;99.90
82836;DHT22;72587;50.746;8.246;2023-12-28T02:20:36;6.90;99.90
82836;DHT22;72587;50.746;8.246;2023-12-28T02:23:02;6.90;99.90
82836;DHT22;72587;50.746;8.246;2023-12-28T02:25:27;6.90;99.90
82836;DHT22;72587;50.746;8.246;2023-12-28T02:27:53;6.90;99.90
82836;DHT22;72587;50.746;8.246;2023-12-28T02:30:21;6.90;99.90
82836;DHT22;72587;50.746;8.246;2023-12-28T02:33:01;6.90;99.90
82836;DHT22;72587;50.746;8.246;2023-12-28T02:35:36;6.90;99.90
82836;DHT22;72587;50.746;8.246;2023-12-28T02:38:09;7.00;99.90
82836;DHT22;72587;50.746;8.246;2023-12-28T02:40:39;7.10;99.90
82836;DHT22;72587;50.746;8.246;2023-12-28T02:43:08;7.20;99.90
82836;DHT22;72587;50.746;8.246;2023-12-28T02:45:34;7.20;99.90
82836;DHT22;72587;50.746;8.246;2023-12-28T02:48:01;7.30;99.90
82836;DHT22;72587;50.746;8.246;2023-12-28T02:50:26;7.30;99.90
82836;DHT22;72587;50.746;8.246;2023-12-28T02:52:52;7.30;99.90
82836;DHT22;72587;50.746;8.246;2023-12-28T02:55:18;7.30;99.90
82836;DHT22;72587;50.746;8.246;2023-12-28T02:57:44;7.30;99.90
82836;DHT22;72587;50.746;8.246;2023-12-28T03:00:10;7.40;99.90
82836;DHT22;72587;50.746;8.246;2023-12-28T03:02:36;7.40;99.90
82836;DHT22;72587;50.746;8.246;2023-12-28T03:05:06;7.40;99.90
82836;DHT22;72587;50.746;8.246;2023-12-28T03:07:35;7.40;99.90
82836;DHT22;72587;50.746;8.246;2023-12-28T03:10:02;7.40;99.90
82836;DHT22;72587;50.746;8.246;2023-12-28T03:12:29;7.40;99.90
82836;DHT22;72587;50.746;8.246;2023-12-28T03:14:54;7.50;99.90
82836;DHT22;72587;50.746;8.246;2023-12-28T03:17:20;7.40;99.90
82836;DHT22;72587;50.746;8.246;2023-12-28T03:19:46;7.40;99.90
82836;DHT22;72587;50.746;8.246;2023-12-28T03:22:12;7.50;99.90
82836;DHT22;72587;50.746;8.246;2023-12-28T03:24:37;7.50;99.90
82836;DHT22;72587;50.746;8.246;2023-12-28T03:27:04;7.60;99.90
82836;DHT22;72587;50.746;8.246;2023-12-28T03:29:30;7.50;99.90
82836;DHT22;72587;50.746;8.246;2023-12-28T03:31:55;7.60;99.90
82836;DHT22;72587;50.746;8.246;2023-12-28T03:34:21;7.60;99.90
82836;DHT22;72587;50.746;8.246;2023-12-28T03:36:48;7.60;99.90
82836;DHT22;72587;50.746;8.246;2023-12-28T03:39:14;7.60;99.90
82836;DHT22;72587;50.746;8.246;2023-12-28T03:41:39;7.60;99.90
82836;DHT22;72587;50.746;8.246;2023-12-28T03:44:05;7.60;99.90
82836;DHT22;72587;50.746;8.246;2023-12-28T03:46:30;7.70;99.90
82836;DHT22;72587;50.746;8.246;2023-12-28T03:48:56;7.70;99.90
82836;DHT22;72587;50.746;8.246;2023-12-28T03:51:22;7.70;99.90
82836;DHT22;72587;50.746;8.246;2023-12-28T03:53:47;7.70;99.90
82836;DHT22;72587;50.746;8.246;2023-12-28T03:56:26;7.80;99.90
82836;DHT22;72587;50.746;8.246;2023-12-28T03:58:52;7.70;99.90
82836;DHT22;72587;50.746;8.246;2023-12-28T04:01:19;7.70;99.90
82836;DHT22;72587;50.746;8.246;2023-12-28T04:03:45;7.70;99.90
82836;DHT22;72587;50.746;8.246;2023-12-28T04:06:11;7.70;99.90
82836;DHT22;72587;50.746;8.246;2023-12-28T04:08:38;7.60;99.90
82836;DHT22;72587;50.746;8.246;2023-12-28T04:11:03;7.60;99.90
82836;DHT22;72587;50.746;8.246;2023-12-28T04:13:29;7.70;99.90
82836;DHT22;72587;50.746;8.246;2023-12-28T04:15:54;7.60;99.90
82836;DHT22;72587;50.746;8.246;2023-12-28T04:18:20;7.60;99.90
82836;DHT22;72587;50.746;8.246;2023-12-28T04:20:46;7.70;99.90
82836;DHT22;72587;50.746;8.246;2023-12-28T04:23:11;7.70;99.90
82836;DHT22;72587;50.746;8.246;2023-12-28T04:25:37;7.60;99.90
82836;DHT22;72587;50.746;8.246;2023-12-28T04:28:02;7.60;99.90
82836;DHT22;72587;50.746;8.246;2023-12-28T04:30:28;7.60;99.90
82836;DHT22;72587;50.746;8.246;2023-12-28T04:32:54;7.50;99.90
82836;DHT22;72587;50.746;8.246;2023-12-28T04:35:19;7.50;99.90
82836;DHT22;72587;50.746;8.246;2023-12-28T04:37:45;7.60;99.90
82836;DHT22;72587;50.746;8.246;2023-12-28T04:40:10;7.50;99.90
82836;DHT22;72587;50.746;8.246;2023-12-28T04:42:36;7.50;99.90
82836;DHT22;72587;50.746;8.246;2023-12-28T04:45:02;7.60;99.90
82836;DHT22;72587;50.746;8.246;2023-12-28T04:47:27;7.60;99.90
82836;DHT22;72587;50.746;8.246;2023-12-28T04:49:53;7.60;99.90
82836;DHT22;72587;50.746;8.246;2023-12-28T04:52:18;7.70;99.90
82836;DHT22;72587;50.746;8.246;2023-12-28T04:54:44;7.70;99.90
82836;DHT22;72587;50.746;8.246;2023-12-28T04:57:10;7.70;99.90
82836;DHT22;72587;50.746;8.246;2023-12-28T04:59:39;7.60;99.90
82836;DHT22;72587;50.746;8.246;2023-12-28T05:02:05;7.60;99.90
82836;DHT22;72587;50.746;8.246;2023-12-28T05:04:30;7.50;99.90
82836;DHT22;72587;50.746;8.246;2023-12-28T05:06:56;7.50;99.90
82836;DHT22;72587;50.746;8.246;2023-12-28T05:09:21;7.60;99.90
82836;DHT22;72587;50.746;8.246;2023-12-28T05:11:47;7.50;99.90
82836;DHT22;72587;50.746;8.246;2023-12-28T05:14:13;7.50;99.90
82836;DHT22;72587;50.746;8.246;2023-12-28T05:16:38;7.40;99.90
82836;DHT22;72587;50.746;8.246;2023-12-28T05:19:04;7.30;99.90
82836;DHT22;72587;50.746;8.246;2023-12-28T05:21:29;7.30;99.90
82836;DHT22;72587;50.746;8.246;2023-12-28T05:23:55;7.30;99.90
82836;DHT22;72587;50.746;8.246;2023-12-28T05:26:20;7.30;99.90
82836;DHT22;72587;50.746;8.246;2023-12-28T05:28:46;7.30;99.90
82836;DHT22;72587;50.746;8.246;2023-12-28T05:31:12;7.20;99.90
82836;DHT22;72587;50.746;8.246;2023-12-28T05:33:38;7.20;99.90
82836;DHT22;72587;50.746;8.246;2023-12-28T05:36:05;7.20;99.90
82836;DHT22;72587;50.746;8.246;2023-12-28T05:38:30;7.20;99.90
82836;DHT22;72587;50.746;8.246;2023-12-28T05:40:56;7.20;99.90
82836;DHT22;72587;50.746;8.246;2023-12-28T05:43:21;7.20;99.90
82836;DHT22;72587;50.746;8.246;2023-12-28T05:45:47;7.30;99.90
82836;DHT22;72587;50.746;8.246;2023-12-28T05:48:13;7.30;99.90
82836;DHT22;72587;50.746;8.246;2023-12-28T05:50:38;7.30;99.90
82836;DHT22;72587;50.746;8.246;2023-12-28T05:53:05;7.20;99.90
82836;DHT22;72587;50.746;8.246;2023-12-28T05:55:30;7.20;99.90
82836;DHT22;72587;50.746;8.246;2023-12-28T05:57:56;7.30;99.90
82836;DHT22;72587;50.746;8.246;2023-12-28T06:00:22;7.40;99.90
82836;DHT22;72587;50.746;8.246;2023-12-28T06:02:47;7.40;99.90
82836;DHT22;72587;50.746;8.246;2023-12-28T06:05:17;7.30;99.90
82836;DHT22;72587;50.746;8.246;2023-12-28T06:07:43;7.30;99.90
82836;DHT22;72587;50.746;8.246;2023-12-28T06:10:09;7.20;99.90
82836;DHT22;72587;50.746;8.246;2023-12-28T06:12:34;7.20;99.90
82836;DHT22;72587;50.746;8.246;2023-12-28T06:15:00;7.20;99.90
82836;DHT22;72587;50.746;8.246;2023-12-28T06:17:26;7.20;99.90
82836;DHT22;72587;50.746;8.246;2023-12-28T06:19:52;7.10;99.90
82836;DHT22;72587;50.746;8.246;2023-12-28T06:22:17;7.20;99.90
82836;DHT22;72587;50.746;8.246;2023-12-28T06:24:43;7.20;99.90
82836;DHT22;72587;50.746;8.246;2023-12-28T06:27:09;7.30;99.90
82836;DHT22;72587;50.746;8.246;2023-12-28T06:29:34;7.20;99.90
82836;DHT22;72587;50.746;8.246;2023-12-28T06:32:00;7.30;99.90
82836;DHT22;72587;50.746;8.246;2023-12-28T06:34:25;7.30;99.90
82836;DHT22;72587;50.746;8.246;2023-12-28T06:36:51;7.30;99.90
82836;DHT22;72587;50.746;8.246;2023-12-28T06:39:17;7.30;99.90
82836;DHT22;72587;50.746;8.246;2023-12-28T06:41:47;7.20;99.90
82836;DHT22;72587;50.746;8.246;2023-12-28T06:44:13;7.10;99.90
82836;DHT22;72587;50.746;8.246;2023-12-28T06:46:40;7.10;99.90
82836;DHT22;72587;50.746;8.246;2023-12-28T06:49:06;7.00;99.90
82836;DHT22;72587;50.746;8.246;2023-12-28T06:51:31;7.00;99.90
82836;DHT22;72587;50.746;8.246;2023-12-28T06:53:58;7.00;99.90
82836;DHT22;72587;50.746;8.246;2023-12-28T06:56:24;7.00;99.90
82836;DHT22;72587;50.746;8.246;2023-12-28T06:58:50;6.90;99.90
82836;DHT22;72587;50.746;8.246;2023-12-28T07:01:15;6.80;99.90
82836;DHT22;72587;50.746;8.246;2023-12-28T07:03:41;6.80;99.90
82836;DHT22;72587;50.746;8.246;2023-12-28T07:06:07;6.70;99.90
82836;DHT22;72587;50.746;8.246;2023-12-28T07:08:33;6.70;99.90
82836;DHT22;72587;50.746;8.246;2023-12-28T07:10:59;6.70;99.90
82836;DHT22;72587;50.746;8.246;2023-12-28T07:13:25;6.70;99.90
82836;DHT22;72587;50.746;8.246;2023-12-28T07:15:51;6.60;99.90
82836;DHT22;72587;50.746;8.246;2023-12-28T07:18:16;6.60;99.90
82836;DHT22;72587;50.746;8.246;2023-12-28T07:20:42;6.60;99.90
82836;DHT22;72587;50.746;8.246;2023-12-28T07:23:07;6.60;99.90
82836;DHT22;72587;50.746;8.246;2023-12-28T07:25:34;6.50;99.90
82836;DHT22;72587;50.746;8.246;2023-12-28T07:28:00;6.50;99.90
82836;DHT22;72587;50.746;8.246;2023-12-28T07:30:25;6.50;99.90
82836;DHT22;72587;50.746;8.246;2023-12-28T07:32:51;6.50;99.90
82836;DHT22;72587;50.746;8.246;2023-12-28T07:35:17;6.40;99.90
82836;DHT22;72587;50.746;8.246;2023-12-28T07:37:43;6.40;99.90
82836;DHT22;72587;50.746;8.246;2023-12-28T07:40:11;6.30;99.90
82836;DHT22;72587;50.746;8.246;2023-12-28T07:42:36;6.40;99.90
82836;DHT22;72587;50.746;8.246;2023-12-28T07:45:02;6.40;99.90
82836;DHT22;72587;50.746;8.246;2023-12-28T07:47:28;6.30;99.90
82836;DHT22;72587;50.746;8.246;2023-12-28T07:49:54;6.30;99.90
82836;DHT22;72587;50.746;8.246;2023-12-28T07:52:19;6.40;99.90
82836;DHT22;72587;50.746;8.246;2023-12-28T07:54:45;6.50;99.90
82836;DHT22;72587;50.746;8.246;2023-12-28T07:57:11;6.60;99.90
82836;DHT22;72587;50.746;8.246;2023-12-28T07:59:36;6.60;99.90
82836;DHT22;72587;50.746;8.246;2023-12-28T08:02:02;6.50;99.90
82836;DHT22;72587;50.746;8.246;2023-12-28T08:04:27;6.50;99.90
82836;DHT22;72587;50.746;8.246;2023-12-28T08:06:53;6.60;99.90
82836;DHT22;72587;50.746;8.246;2023-12-28T08:09:18;6.70;99.90
82836;DHT22;72587;50.746;8.246;2023-12-28T08:11:44;6.70;99.90
82836;DHT22;72587;50.746;8.246;2023-12-28T08:14:09;6.70;99.90
82836;DHT22;72587;50.746;8.246;2023-12-28T08:16:35;6.70;99.90
82836;DHT22;72587;50.746;8.246;2023-12-28T08:19:01;6.70;99.90
82836;DHT22;72587;50.746;8.246;2023-12-28T08:21:27;6.70;99.90
82836;DHT22;72587;50.746;8.246;2023-12-28T08:23:52;6.70;99.90
82836;DHT22;72587;50.746;8.246;2023-12-28T08:26:18;6.70;99.90
82836;DHT22;72587;50.746;8.246;2023-12-28T08:28:43;6.60;99.90
82836;DHT22;72587;50.746;8.246;2023-12-28T08:31:09;6.80;99.90
82836;DHT22;72587;50.746;8.246;2023-12-28T08:33:35;6.90;99.90
82836;DHT22;72587;50.746;8.246;2023-12-28T08:36:04;7.00;99.90
82836;DHT22;72587;50.746;8.246;2023-12-28T08:38:30;7.10;99.90
82836;DHT22;72587;50.746;8.246;2023-12-28T08:40:56;7.20;99.90
82836;DHT22;72587;50.746;8.246;2023-12-28T08:43:22;7.20;99.90
82836;DHT22;72587;50.746;8.246;2023-12-28T08:45:47;7.40;99.90
82836;DHT22;72587;50.746;8.246;2023-12-28T08:48:13;7.50;99.90
82836;DHT22;72587;50.746;8.246;2023-12-28T08:50:39;7.60;99.90
82836;DHT22;72587;50.746;8.246;2023-12-28T08:53:04;7.60;99.90
82836;DHT22;72587;50.746;8.246;2023-12-28T08:55:30;7.70;99.90
82836;DHT22;72587;50.746;8.246;2023-12-28T08:57:55;7.80;99.90
82836;DHT22;72587;50.746;8.246;2023-12-28T09:00:21;7.80;99.90
82836;DHT22;72587;50.746;8.246;2023-12-28T09:02:47;7.90;99.90
82836;DHT22;72587;50.746;8.246;2023-12-28T09:05:12;8.00;99.90
82836;DHT22;72587;50.746;8.246;2023-12-28T09:07:38;8.00;99.90
82836;DHT22;72587;50.746;8.246;2023-12-28T09:10:09;8.00;99.90
82836;DHT22;72587;50.746;8.246;2023-12-28T09:12:35;8.10;99.90
82836;DHT22;72587;50.746;8.246;2023-12-28T09:15:01;8.10;99.90
82836;DHT22;72587;50.746;8.246;2023-12-28T09:17:26;8.20;99.90
82836;DHT22;72587;50.746;8.246;2023-12-28T09:19:52;8.30;99.90
82836;DHT22;72587;50.746;8.246;2023-12-28T09:22:17;8.40;99.90
82836;DHT22;72587;50.746;8.246;2023-12-28T09:24:43;8.40;99.90
82836;DHT22;72587;50.746;8.246;2023-12-28T09:27:09;8.50;99.90
82836;DHT22;72587;50.746;8.246;2023-12-28T09:29:34;8.60;99.90
82836;DHT22;72587;50.746;8.246;2023-12-28T09:32:00;8.80;99.90
82836;DHT22;72587;50.746;8.246;2023-12-28T09:34:26;8.80;99.90
82836;DHT22;72587;50.746;8.246;2023-12-28T09:36:51;9.00;99.90
82836;DHT22;72587;50.746;8.246;2023-12-28T09:39:17;9.20;99.90
82836;DHT22;72587;50.746;8.246;2023-12-28T09:41:48;9.40;99.90
82836;DHT22;72587;50.746;8.246;2023-12-28T09:44:15;9.70;99.90
82836;DHT22;72587;50.746;8.246;2023-12-28T09:46:43;10.20;99.90
82836;DHT22;72587;50.746;8.246;2023-12-28T09:49:11;11.00;99.90
82836;DHT22;72587;50.746;8.246;2023-12-28T09:51:36;11.50;99.90
82836;DHT22;72587;50.746;8.246;2023-12-28T09:54:03;11.90;99.90
82836;DHT22;72587;50.746;8.246;2023-12-28T09:56:30;11.70;99.90
82836;DHT22;72587;50.746;8.246;2023-12-28T09:58:57;12.20;99.90
82836;DHT22;72587;50.746;8.246;2023-12-28T10:01:22;12.60;99.90
82836;DHT22;72587;50.746;8.246;2023-12-28T10:03:48;12.70;99.90
82836;DHT22;72587;50.746;8.246;2023-12-28T10:06:14;12.10;99.90
82836;DHT22;72587;50.746;8.246;2023-12-28T10:08:48;11.80;99.90
82836;DHT22;72587;50.746;8.246;2023-12-28T10:11:18;11.30;99.90
82836;DHT22;72587;50.746;8.246;2023-12-28T10:13:44;11.00;99.90
82836;DHT22;72587;50.746;8.246;2023-12-28T10:16:10;11.00;99.90
82836;DHT22;72587;50.746;8.246;2023-12-28T10:18:40;11.10;99.90
82836;DHT22;72587;50.746;8.246;2023-12-28T10:21:05;11.30;99.90
82836;DHT22;72587;50.746;8.246;2023-12-28T10:23:31;11.20;99.90
82836;DHT22;72587;50.746;8.246;2023-12-28T10:25:57;11.20;99.90
82836;DHT22;72587;50.746;8.246;2023-12-28T10:28:24;11.30;99.90
82836;DHT22;72587;50.746;8.246;2023-12-28T10:30:54;11.20;99.90
82836;DHT22;72587;50.746;8.246;2023-12-28T10:33:20;11.00;99.90
82836;DHT22;72587;50.746;8.246;2023-12-28T10:35:46;10.90;99.90
82836;DHT22;72587;50.746;8.246;2023-12-28T10:38:13;10.80;99.90
82836;DHT22;72587;50.746;8.246;2023-12-28T10:40:42;10.90;99.90
82836;DHT22;72587;50.746;8.246;2023-12-28T10:43:11;11.00;99.90
82836;DHT22;72587;50.746;8.246;2023-12-28T10:45:39;11.20;99.90
82836;DHT22;72587;50.746;8.246;2023-12-28T10:48:06;11.20;99.90
82836;DHT22;72587;50.746;8.246;2023-12-28T10:53:53;11.50;99.90
82836;DHT22;72587;50.746;8.246;2023-12-28T10:58:48;11.50;99.90
82836;DHT22;72587;50.746;8.246;2023-12-28T11:01:21;11.40;99.90
82836;DHT22;72587;50.746;8.246;2023-12-28T11:03:57;11.30;99.90
82836;DHT22;72587;50.746;8.246;2023-12-28T11:06:25;11.30;99.90
82836;DHT22;72587;50.746;8.246;2023-12-28T11:08:52;11.30;99.90
82836;DHT22;72587;50.746;8.246;2023-12-28T11:11:21;11.40;99.90
82836;DHT22;72587;50.746;8.246;2023-12-28T11:13:47;11.50;99.90
82836;DHT22;72587;50.746;8.246;2023-12-28T11:16:14;11.50;99.90
82836;DHT22;72587;50.746;8.246;2023-12-28T11:18:40;11.30;99.90
82836;DHT22;72587;50.746;8.246;2023-12-28T11:21:06;11.20;99.90
82836;DHT22;72587;50.746;8.246;2023-12-28T11:23:31;11.30;99.90
82836;DHT22;72587;50.746;8.246;2023-12-28T11:25:57;11.50;99.90
82836;DHT22;72587;50.746;8.246;2023-12-28T11:28:23;11.70;99.90
82836;DHT22;72587;50.746;8.246;2023-12-28T11:30:51;12.00;99.90
82836;DHT22;72587;50.746;8.246;2023-12-28T11:33:17;12.10;99.90
82836;DHT22;72587;50.746;8.246;2023-12-28T11:35:44;12.30;99.90
82836;DHT22;72587;50.746;8.246;2023-12-28T11:38:15;12.50;99.90
82836;DHT22;72587;50.746;8.246;2023-12-28T11:40:42;12.40;99.90
82836;DHT22;72587;50.746;8.246;2023-12-28T11:43:17;12.50;99.90
82836;DHT22;72587;50.746;8.246;2023-12-28T11:45:48;12.70;99.90
82836;DHT22;72587;50.746;8.246;2023-12-28T11:48:23;12.90;99.90
82836;DHT22;72587;50.746;8.246;2023-12-28T11:50:49;13.20;99.90
82836;DHT22;72587;50.746;8.246;2023-12-28T11:53:15;13.40;99.90
82836;DHT22;72587;50.746;8.246;2023-12-28T11:55:42;13.40;99.90
82836;DHT22;72587;50.746;8.246;2023-12-28T11:58:07;13.80;99.90
82836;DHT22;72587;50.746;8.246;2023-12-28T12:00:33;14.40;99.90
82836;DHT22;72587;50.746;8.246;2023-12-28T12:02:58;14.40;99.90
82836;DHT22;72587;50.746;8.246;2023-12-28T12:05:24;14.20;99.90
82836;DHT22;72587;50.746;8.246;2023-12-28T12:07:50;14.50;99.90
82836;DHT22;72587;50.746;8.246;2023-12-28T12:10:15;14.60;99.90
82836;DHT22;72587;50.746;8.246;2023-12-28T12:12:41;14.60;99.90
82836;DHT22;72587;50.746;8.246;2023-12-28T12:15:08;14.50;99.90
82836;DHT22;72587;50.746;8.246;2023-12-28T12:17:34;14.60;99.90
82836;DHT22;72587;50.746;8.246;2023-12-28T12:19:59;14.20;99.90
82836;DHT22;72587;50.746;8.246;2023-12-28T12:22:27;14.00;99.90
82836;DHT22;72587;50.746;8.246;2023-12-28T12:24:53;13.90;99.90
82836;DHT22;72587;50.746;8.246;2023-12-28T12:27:19;13.80;99.90
82836;DHT22;72587;50.746;8.246;2023-12-28T12:29:45;13.40;99.90
82836;DHT22;72587;50.746;8.246;2023-12-28T12:32:11;13.10;99.90
82836;DHT22;72587;50.746;8.246;2023-12-28T12:34:38;12.70;99.90
82836;DHT22;72587;50.746;8.246;2023-12-28T12:37:05;12.70;99.90
82836;DHT22;72587;50.746;8.246;2023-12-28T12:39:30;12.90;99.90
82836;DHT22;72587;50.746;8.246;2023-12-28T12:41:57;13.00;99.90
82836;DHT22;72587;50.746;8.246;2023-12-28T12:44:23;13.10;99.90
82836;DHT22;72587;50.746;8.246;2023-12-28T12:46:56;13.10;99.90
82836;DHT22;72587;50.746;8.246;2023-12-28T12:49:22;12.80;99.90
82836;DHT22;72587;50.746;8.246;2023-12-28T12:51:48;12.90;99.90
82836;DHT22;72587;50.746;8.246;2023-12-28T12:54:17;12.90;99.90
82836;DHT22;72587;50.746;8.246;2023-12-28T12:56:44;12.90;99.90
82836;DHT22;72587;50.746;8.246;2023-12-28T12:59:11;12.90;99.90
82836;DHT22;72587;50.746;8.246;2023-12-28T13:01:42;12.80;99.90
82836;DHT22;72587;50.746;8.246;2023-12-28T13:04:07;12.80;99.90
82836;DHT22;72587;50.746;8.246;2023-12-28T13:06:33;12.80;99.90
82836;DHT22;72587;50.746;8.246;2023-12-28T13:08:58;12.80;99.90
82836;DHT22;72587;50.746;8.246;2023-12-28T13:11:25;12.70;99.90
82836;DHT22;72587;50.746;8.246;2023-12-28T13:13:52;12.60;99.90
82836;DHT22;72587;50.746;8.246;2023-12-28T13:16:18;12.60;99.90
82836;DHT22;72587;50.746;8.246;2023-12-28T13:18:43;12.70;99.90
82836;DHT22;72587;50.746;8.246;2023-12-28T13:21:09;12.80;99.90
82836;DHT22;72587;50.746;8.246;2023-12-28T13:23:34;12.80;99.90
82836;DHT22;72587;50.746;8.246;2023-12-28T13:26:00;12.80;99.90
82836;DHT22;72587;50.746;8.246;2023-12-28T13:28:25;12.80;99.90
82836;DHT22;72587;50.746;8.246;2023-12-28T13:30:51;12.90;99.90
82836;DHT22;72587;50.746;8.246;2023-12-28T13:33:21;12.90;99.90
82836;DHT22;72587;50.746;8.246;2023-12-28T13:35:47;12.80;99.90
82836;DHT22;72587;50.746;8.246;2023-12-28T13:38:12;12.70;99.90
82836;DHT22;72587;50.746;8.246;2023-12-28T13:40:38;12.70;99.90
82836;DHT22;72587;50.746;8.246;2023-12-28T13:43:03;12.60;99.90
82836;DHT22;72587;50.746;8.246;2023-12-28T13:45:29;12.30;99.90
82836;DHT22;72587;50.746;8.246;2023-12-28T13:47:55;12.10;99.90
82836;DHT22;72587;50.746;8.246;2023-12-28T13:50:20;11.80;99.90
82836;DHT22;72587;50.746;8.246;2023-12-28T13:52:46;11.70;99.90
82836;DHT22;72587;50.746;8.246;2023-12-28T13:55:12;11.80;99.90
82836;DHT22;72587;50.746;8.246;2023-12-28T13:57:37;11.70;99.90
82836;DHT22;72587;50.746;8.246;2023-12-28T14:00:03;11.70;99.90
82836;DHT22;72587;50.746;8.246;2023-12-28T14:02:30;11.80;99.90
82836;DHT22;72587;50.746;8.246;2023-12-28T14:04:56;11.70;99.90
82836;DHT22;72587;50.746;8.246;2023-12-28T14:07:23;11.70;99.90
82836;DHT22;72587;50.746;8.246;2023-12-28T14:09:49;11.50;99.90
82836;DHT22;72587;50.746;8.246;2023-12-28T14:12:14;11.50;99.90
82836;DHT22;72587;50.746;8.246;2023-12-28T14:14:40;11.50;99.90
82836;DHT22;72587;50.746;8.246;2023-12-28T14:17:05;11.40;99.90
82836;DHT22;72587;50.746;8.246;2023-12-28T14:19:31;11.40;99.90
82836;DHT22;72587;50.746;8.246;2023-12-28T14:21:58;11.30;99.90
82836;DHT22;72587;50.746;8.246;2023-12-28T14:24:24;11.40;99.90
82836;DHT22;72587;50.746;8.246;2023-12-28T14:26:53;11.40;99.90
82836;DHT22;72587;50.746;8.246;2023-12-28T14:29:19;11.40;99.90
82836;DHT22;72587;50.746;8.246;2023-12-28T14:31:45;11.30;99.90
82836;DHT22;72587;50.746;8.246;2023-12-28T14:34:11;11.30;99.90
82836;DHT22;72587;50.746;8.246;2023-12-28T14:36:37;11.30;99.90
82836;DHT22;72587;50.746;8.246;2023-12-28T14:39:07;11.20;99.90
82836;DHT22;72587;50.746;8.246;2023-12-28T14:41:36;10.90;99.90
82836;DHT22;72587;50.746;8.246;2023-12-28T14:44:03;10.80;99.90
82836;DHT22;72587;50.746;8.246;2023-12-28T14:46:29;10.80;99.90
82836;DHT22;72587;50.746;8.246;2023-12-28T14:48:55;10.70;99.90
82836;DHT22;72587;50.746;8.246;2023-12-28T14:51:21;10.70;99.90
82836;DHT22;72587;50.746;8.246;2023-12-28T14:53:47;10.60;99.90
82836;DHT22;72587;50.746;8.246;2023-12-28T14:56:13;10.50;99.90
82836;DHT22;72587;50.746;8.246;2023-12-28T14:58:39;10.50;99.90
82836;DHT22;72587;50.746;8.246;2023-12-28T15:01:05;10.40;99.90
82836;DHT22;72587;50.746;8.246;2023-12-28T15:03:31;10.30;99.90
82836;DHT22;72587;50.746;8.246;2023-12-28T15:05:57;10.20;99.90
82836;DHT22;72587;50.746;8.246;2023-12-28T15:08:25;10.10;99.90
82836;DHT22;72587;50.746;8.246;2023-12-28T15:10:52;10.10;99.90
82836;DHT22;72587;50.746;8.246;2023-12-28T15:13:17;10.00;99.90
82836;DHT22;72587;50.746;8.246;2023-12-28T15:15:44;10.00;99.90
82836;DHT22;72587;50.746;8.246;2023-12-28T15:18:10;10.00;99.90
82836;DHT22;72587;50.746;8.246;2023-12-28T15:20:36;9.90;99.90
82836;DHT22;72587;50.746;8.246;2023-12-28T15:23:02;9.80;99.90
82836;DHT22;72587;50.746;8.246;2023-12-28T15:25:27;9.80;99.90
82836;DHT22;72587;50.746;8.246;2023-12-28T15:27:54;9.60;99.90
82836;DHT22;72587;50.746;8.246;2023-12-28T15:30:20;9.50;99.90
82836;DHT22;72587;50.746;8.246;2023-12-28T15:32:45;9.30;99.90
82836;DHT22;72587;50.746;8.246;2023-12-28T15:35:14;9.20;99.90
82836;DHT22;72587;50.746;8.246;2023-12-28T15:37:42;9.30;99.90
82836;DHT22;72587;50.746;8.246;2023-12-28T15:40:08;9.20;99.90